createdAt,value
2018-01-27T00:01:26.200Z,92.32
2018-01-27T00:03:53.764Z,92.44
2018-01-27T00:06:21.276Z,92.66
2018-01-27T00:08:48.890Z,93.16
2018-01-27T00:11:16.421Z,92.92
2018-01-27T00:13:50.908Z,92.60
2018-01-27T00:16:18.431Z,92.29
2018-01-27T00:18:45.985Z,92.12
2018-01-27T00:21:13.529Z,92.08
2018-01-27T00:23:41.053Z,91.88
2018-01-27T00:26:08.605Z,91.82
2018-01-27T00:28:36.137Z,91.82
2018-01-27T00:31:03.698Z,92.06
2018-01-27T00:33:31.221Z,91.95
2018-01-27T00:35:58.785Z,91.80
2018-01-27T00:38:26.528Z,92.02
2018-01-27T00:40:54.099Z,91.90
2018-01-27T00:43:21.643Z,91.79
2018-01-27T00:45:49.170Z,92.12
2018-01-27T00:48:16.804Z,92.16
2018-01-27T00:50:44.449Z,92.02
2018-01-27T00:53:12.144Z,92.04
2018-01-27T00:55:39.689Z,92.04
2018-01-27T00:58:07.263Z,92.04
2018-01-27T01:00:34.824Z,92.23
2018-01-27T01:03:02.356Z,92.23
2018-01-27T01:05:29.945Z,92.16
2018-01-27T01:07:57.492Z,92.13
2018-01-27T01:10:25.169Z,92.25
2018-01-27T01:12:52.689Z,92.18
2018-01-27T01:15:20.280Z,92.30
2018-01-27T01:17:48.637Z,92.48
2018-01-27T01:20:16.224Z,92.32
2018-01-27T01:22:43.750Z,92.28
2018-01-27T01:25:11.311Z,92.68
2018-01-27T01:27:38.842Z,92.90
2018-01-27T01:30:06.465Z,93.21
2018-01-27T01:32:34.025Z,93.31
2018-01-27T01:35:01.580Z,93.18
2018-01-27T01:37:29.112Z,93.19
2018-01-27T01:39:56.640Z,93.25
2018-01-27T01:42:29.764Z,93.22
2018-01-27T01:44:57.323Z,93.48
2018-01-27T01:47:24.884Z,93.27
2018-01-27T01:49:52.475Z,93.34
2018-01-27T01:52:20.001Z,93.31
2018-01-27T01:54:47.525Z,93.21
2018-01-27T01:57:15.041Z,93.04
2018-01-27T01:59:42.553Z,92.90
2018-01-27T02:02:10.105Z,93.26
2018-01-27T02:04:37.739Z,93.52
2018-01-27T02:07:05.260Z,93.35
2018-01-27T02:09:33.378Z,93.55
2018-01-27T02:12:00.940Z,93.54
2018-01-27T02:14:28.466Z,93.60
2018-01-27T02:16:56.010Z,93.54
2018-01-27T02:19:23.534Z,93.46
2018-01-27T02:21:51.067Z,93.32
2018-01-27T02:24:18.626Z,93.48
2018-01-27T02:26:46.151Z,93.21
2018-01-27T02:29:13.680Z,93.25
2018-01-27T02:31:41.202Z,93.41
2018-01-27T02:34:08.729Z,93.25
2018-01-27T02:36:36.256Z,93.26
2018-01-27T02:39:03.780Z,93.42
2018-01-27T02:41:31.744Z,93.45
2018-01-27T02:43:59.274Z,93.24
2018-01-27T02:46:26.805Z,93.23
2018-01-27T02:48:54.432Z,93.54
2018-01-27T02:51:21.974Z,93.58
2018-01-27T02:53:49.521Z,93.61
2018-01-27T02:56:17.048Z,93.52
2018-01-27T02:58:44.625Z,93.62
2018-01-27T03:01:12.158Z,93.70
2018-01-27T03:03:39.693Z,93.56
2018-01-27T03:06:07.232Z,93.38
2018-01-27T03:08:34.809Z,93.09
2018-01-27T03:11:02.320Z,93.42
2018-01-27T03:13:29.928Z,93.33
2018-01-27T03:15:57.446Z,93.41
2018-01-27T03:18:24.980Z,93.35
2018-01-27T03:20:52.606Z,93.55
2018-01-27T03:23:20.166Z,93.29
2018-01-27T03:25:47.682Z,93.14
2018-01-27T03:28:15.241Z,93.08
2018-01-27T03:30:42.773Z,92.91
2018-01-27T03:33:10.427Z,93.32
2018-01-27T03:35:37.961Z,93.54
2018-01-27T03:38:05.486Z,93.63
2018-01-27T03:40:33.042Z,93.64
2018-01-27T03:43:00.572Z,93.66
2018-01-27T03:45:28.100Z,93.66
2018-01-27T03:47:55.621Z,93.62
2018-01-27T03:50:23.146Z,93.62
2018-01-27T03:52:50.677Z,93.65
2018-01-27T03:55:18.193Z,93.74
2018-01-27T03:57:45.726Z,93.75
2018-01-27T04:00:13.249Z,93.65
2018-01-27T04:02:40.786Z,93.75
2018-01-27T04:05:08.307Z,93.79
2018-01-27T04:07:35.862Z,93.65
2018-01-27T04:10:03.373Z,93.61
2018-01-27T04:12:30.884Z,93.68
2018-01-27T04:14:58.516Z,93.72
2018-01-27T04:17:26.045Z,93.64
2018-01-27T04:19:53.564Z,93.57
2018-01-27T04:22:21.080Z,93.55
2018-01-27T04:24:48.610Z,93.66
2018-01-27T04:27:16.137Z,93.49
2018-01-27T04:29:43.659Z,93.31
2018-01-27T04:32:11.190Z,93.13
2018-01-27T04:34:38.713Z,92.96
2018-01-27T04:37:06.354Z,92.94
2018-01-27T04:39:33.884Z,93.20
2018-01-27T04:42:01.413Z,93.18
2018-01-27T04:44:28.964Z,93.23
2018-01-27T04:46:56.476Z,93.34
2018-01-27T04:49:24.033Z,93.03
2018-01-27T04:51:51.605Z,93.04
2018-01-27T04:54:19.129Z,93.03
2018-01-27T04:56:46.660Z,93.10
2018-01-27T04:59:14.189Z,93.17
2018-01-27T05:01:41.713Z,92.95
2018-01-27T05:04:09.241Z,92.71
2018-01-27T05:06:36.762Z,92.89
2018-01-27T05:09:04.294Z,92.96
2018-01-27T05:11:31.817Z,93.21
2018-01-27T05:13:59.349Z,93.22
2018-01-27T05:16:26.870Z,92.99
2018-01-27T05:18:54.400Z,92.99
2018-01-27T05:21:21.929Z,92.79
2018-01-27T05:23:49.459Z,92.95
2018-01-27T05:26:17.438Z,92.85
2018-01-27T05:28:45.000Z,93.03
2018-01-27T05:31:12.513Z,93.26
2018-01-27T05:33:40.035Z,93.16
2018-01-27T05:36:07.684Z,92.94
2018-01-27T05:38:35.218Z,92.94
2018-01-27T05:41:02.769Z,92.90
2018-01-27T05:43:30.280Z,93.00
2018-01-27T05:45:57.797Z,93.06
2018-01-27T05:48:25.350Z,93.28
2018-01-27T05:50:52.876Z,93.09
2018-01-27T05:53:20.393Z,92.83
2018-01-27T05:55:47.970Z,92.67
2018-01-27T05:58:15.500Z,92.64
2018-01-27T06:00:43.046Z,92.63
2018-01-27T06:03:10.575Z,92.70
2018-01-27T06:05:38.106Z,92.80
2018-01-27T06:08:05.620Z,92.79
2018-01-27T06:10:33.167Z,92.68
2018-01-27T06:13:00.709Z,92.63
2018-01-27T06:15:28.243Z,92.89
2018-01-27T06:17:55.775Z,92.81
2018-01-27T06:20:23.333Z,92.73
2018-01-27T06:22:50.878Z,92.52
2018-01-27T06:25:18.402Z,92.38
2018-01-27T06:27:46.045Z,92.51
2018-01-27T06:30:13.570Z,92.59
2018-01-27T06:32:41.089Z,92.48
2018-01-27T06:35:08.718Z,92.36
2018-01-27T06:37:36.232Z,92.53
2018-01-27T06:40:03.753Z,92.47
2018-01-27T06:42:31.275Z,92.58
2018-01-27T06:44:58.790Z,92.88
2018-01-27T06:47:26.315Z,92.80
2018-01-27T06:49:53.852Z,92.58
2018-01-27T06:52:21.372Z,92.32
2018-01-27T06:54:48.892Z,92.36
2018-01-27T06:57:16.457Z,92.61
2018-01-27T06:59:43.984Z,92.31
2018-01-27T07:02:11.573Z,92.62
2018-01-27T07:04:39.091Z,92.20
2018-01-27T07:07:06.609Z,92.10
2018-01-27T07:09:34.122Z,91.67
2018-01-27T07:12:01.646Z,91.44
2018-01-27T07:14:29.175Z,91.39
2018-01-27T07:16:56.696Z,91.15
2018-01-27T07:19:24.219Z,91.38
2018-01-27T07:21:51.854Z,91.31
2018-01-27T07:24:19.373Z,91.18
2018-01-27T07:26:46.943Z,91.15
2018-01-27T07:29:14.461Z,91.09
2018-01-27T07:31:41.988Z,90.95
2018-01-27T07:34:09.506Z,90.90
2018-01-27T07:36:37.035Z,90.92
2018-01-27T07:39:04.552Z,90.61
2018-01-27T07:41:32.073Z,90.50
2018-01-27T07:43:59.686Z,90.43
2018-01-27T07:46:27.214Z,90.22
2018-01-27T07:48:54.736Z,90.42
2018-01-27T07:51:22.267Z,89.97
2018-01-27T07:53:49.821Z,89.96
2018-01-27T07:56:17.350Z,90.00
2018-01-27T07:58:44.873Z,89.65
2018-01-27T08:01:12.489Z,89.66
2018-01-27T08:03:40.001Z,89.21
2018-01-27T08:06:07.525Z,89.24
2018-01-27T08:08:35.050Z,89.07
2018-01-27T08:11:02.570Z,88.94
2018-01-27T08:13:30.084Z,90.24
2018-01-27T08:15:57.618Z,88.92
2018-01-27T08:18:25.141Z,89.38
2018-01-27T08:20:52.648Z,88.87
2018-01-27T08:23:20.229Z,88.09
2018-01-27T08:25:47.795Z,86.99
2018-01-27T08:28:15.354Z,87.31
2018-01-27T08:30:42.874Z,86.98
2018-01-27T08:33:10.398Z,86.91
2018-01-27T08:35:37.938Z,86.65
2018-01-27T08:38:05.464Z,86.56
2018-01-27T08:40:32.993Z,86.22
2018-01-27T08:43:01.911Z,86.66
2018-01-27T08:45:29.494Z,86.11
2018-01-27T08:47:57.057Z,86.02
2018-01-27T08:50:24.623Z,86.48
2018-01-27T08:52:52.180Z,85.97
2018-01-27T08:55:19.733Z,84.99
2018-01-27T08:57:47.297Z,85.58
2018-01-27T10:16:11.827Z,80.82
2018-01-27T10:18:39.339Z,81.11
2018-01-27T10:21:06.945Z,81.90
2018-01-27T10:23:34.469Z,81.15
2018-01-27T10:26:02.016Z,81.07
2018-01-27T10:28:29.559Z,82.04
2018-01-27T10:30:57.185Z,81.96
2018-01-27T10:33:24.734Z,81.93
2018-01-27T10:35:52.273Z,82.71
2018-01-27T10:38:19.790Z,82.86
2018-01-27T10:40:47.317Z,83.28
2018-01-27T10:43:14.850Z,83.03
2018-01-27T10:45:42.393Z,83.40
2018-01-27T10:48:09.913Z,83.12
2018-01-27T10:50:37.446Z,82.90
2018-01-27T10:53:05.018Z,82.12
2018-01-27T10:55:32.538Z,80.37
2018-01-27T10:58:00.139Z,80.68
2018-01-27T11:00:27.660Z,81.06
2018-01-27T11:02:55.246Z,81.97
2018-01-27T11:05:22.818Z,82.04
2018-01-27T11:07:50.509Z,81.79
2018-01-27T11:10:18.142Z,81.98
2018-01-27T11:12:45.669Z,81.72
2018-01-27T11:15:13.191Z,80.17
2018-01-27T11:17:40.715Z,80.83
2018-01-27T11:20:08.241Z,80.96
2018-01-27T11:22:35.782Z,81.20
2018-01-27T11:25:03.306Z,81.26
2018-01-27T11:27:30.817Z,80.22
2018-01-27T11:29:58.426Z,79.41
2018-01-27T11:32:25.949Z,80.50
2018-01-27T11:34:53.547Z,80.93
2018-01-27T11:37:21.070Z,79.12
2018-01-27T11:39:48.606Z,80.27
2018-01-27T11:42:16.134Z,78.78
2018-01-27T11:44:43.660Z,78.32
2018-01-27T11:47:11.340Z,78.09
2018-01-27T11:49:38.866Z,78.33
2018-01-27T11:52:06.392Z,79.80
2018-01-27T11:54:34.017Z,78.36
2018-01-27T11:57:01.550Z,78.28
2018-01-27T11:59:29.070Z,78.37
2018-01-27T12:01:56.595Z,78.83
2018-01-27T12:04:24.113Z,78.89
2018-01-27T12:06:51.673Z,79.09
2018-01-27T12:09:19.197Z,79.41
2018-01-27T12:11:46.722Z,79.20
2018-01-27T12:14:14.244Z,77.44
2018-01-27T12:16:41.799Z,79.26
2018-01-27T12:19:09.330Z,77.46
2018-01-27T12:21:36.859Z,77.42
2018-01-27T12:24:04.384Z,76.72
2018-01-27T12:26:31.951Z,77.93
2018-01-27T12:28:59.486Z,77.34
2018-01-27T12:31:27.014Z,76.87
2018-01-27T12:33:54.530Z,76.60
2018-01-27T12:36:22.063Z,76.86
2018-01-27T12:38:49.582Z,77.15
2018-01-27T12:41:17.113Z,77.77
2018-01-27T12:43:44.653Z,77.25
2018-01-27T12:46:12.177Z,77.09
2018-01-27T12:48:39.722Z,76.70
2018-01-27T12:51:07.244Z,76.50
2018-01-27T12:53:34.791Z,75.74
2018-01-27T12:56:02.315Z,77.03
2018-01-27T12:58:29.847Z,76.33
2018-01-27T13:00:57.358Z,75.79
2018-01-27T13:03:24.981Z,74.84
2018-01-27T13:05:52.510Z,73.68
2018-01-27T13:08:20.098Z,73.49
2018-01-27T13:10:47.621Z,73.83
2018-01-27T13:13:15.224Z,74.64
2018-01-27T13:15:42.883Z,74.22
2018-01-27T13:18:10.410Z,71.99
2018-01-27T13:20:37.942Z,73.71
2018-01-27T13:23:05.558Z,72.69
2018-01-27T13:25:33.130Z,71.43
2018-01-27T13:28:00.650Z,73.11
2018-01-27T13:30:28.180Z,73.47
2018-01-27T13:32:55.810Z,72.12
2018-01-27T13:35:23.360Z,72.08
2018-01-27T13:37:50.949Z,71.58
2018-01-27T13:40:18.479Z,71.96
2018-01-27T13:42:46.051Z,72.27
2018-01-27T13:45:13.575Z,71.99
2018-01-27T13:47:41.164Z,72.53
2018-01-27T13:50:08.690Z,72.18
2018-01-27T13:52:36.214Z,70.74
2018-01-27T13:55:03.742Z,71.84
2018-01-27T13:57:31.274Z,71.25
2018-01-27T13:59:58.864Z,73.30
2018-01-27T14:02:26.411Z,73.88
2018-01-27T14:04:53.945Z,74.04
2018-01-27T14:07:21.468Z,73.81
2018-01-27T14:09:48.989Z,72.96
2018-01-27T14:12:16.559Z,73.88
2018-01-27T14:14:44.124Z,74.34
2018-01-27T14:17:11.651Z,74.50
2018-01-27T14:19:39.176Z,74.66
2018-01-27T14:22:06.800Z,74.96
2018-01-27T14:24:34.354Z,74.84
2018-01-27T14:27:01.877Z,75.03
2018-01-27T14:29:29.452Z,74.17
2018-01-27T14:31:56.982Z,74.54
2018-01-27T14:34:24.570Z,75.21
2018-01-27T14:36:52.081Z,75.40
2018-01-27T14:39:19.721Z,74.96
2018-01-27T14:41:47.245Z,74.02
2018-01-27T14:44:14.842Z,74.58
2018-01-27T14:46:42.373Z,75.79
2018-01-27T14:49:09.924Z,75.92
2018-01-27T14:51:37.530Z,76.39
2018-01-27T14:54:05.052Z,75.99
2018-01-27T14:56:32.577Z,76.87
2018-01-27T14:59:00.206Z,76.31
2018-01-27T15:01:27.730Z,76.75
2018-01-27T15:03:55.329Z,76.82
2018-01-27T15:06:22.844Z,76.67
2018-01-27T15:08:50.423Z,77.05
2018-01-27T15:11:17.937Z,77.23
2018-01-27T15:13:45.561Z,77.20
2018-01-27T15:16:13.085Z,77.59
2018-01-27T15:18:40.608Z,76.84
2018-01-27T15:21:08.133Z,77.43
2018-01-27T15:23:35.702Z,77.12
2018-01-27T15:26:03.226Z,77.88
2018-01-27T15:28:30.806Z,77.47
2018-01-27T15:30:58.333Z,77.85
2018-01-27T15:33:25.860Z,77.97
2018-01-27T15:35:53.494Z,77.81
2018-01-27T15:38:21.017Z,78.41
2018-01-27T15:40:48.554Z,78.45
2018-01-27T15:43:16.158Z,78.44
2018-01-27T15:45:43.734Z,78.64
2018-01-27T15:48:11.259Z,78.60
2018-01-27T15:50:38.903Z,79.02
2018-01-27T15:53:06.527Z,79.19
2018-01-27T15:55:34.045Z,79.13
2018-01-27T15:58:01.590Z,79.21
2018-01-27T16:00:29.115Z,79.51
2018-01-27T16:02:56.648Z,79.59
2018-01-27T16:05:24.173Z,79.49
2018-01-27T16:07:51.718Z,79.71
2018-01-27T16:10:19.313Z,79.86
2018-01-27T16:12:46.842Z,79.98
2018-01-27T16:15:14.368Z,80.17
2018-01-27T16:17:41.910Z,79.92
2018-01-27T16:20:09.444Z,80.30
2018-01-27T16:22:37.031Z,80.58
2018-01-27T16:25:04.570Z,80.55
2018-01-27T16:27:32.160Z,80.63
2018-01-27T16:29:59.378Z,80.53
2018-01-27T16:32:26.964Z,80.61
2018-01-27T16:34:54.555Z,80.95
2018-01-27T16:37:22.073Z,80.86
2018-01-27T16:39:49.638Z,81.25
2018-01-27T16:42:17.161Z,81.33
2018-01-27T16:44:44.694Z,81.33
2018-01-27T16:47:12.218Z,81.65
2018-01-27T16:49:39.739Z,81.71
2018-01-27T16:52:07.336Z,81.66
2018-01-27T16:54:34.907Z,81.64
2018-01-27T16:57:02.465Z,82.00
2018-01-27T16:59:29.985Z,81.87
2018-01-27T17:01:57.585Z,82.25
2018-01-27T17:04:25.157Z,82.02
2018-01-27T17:06:52.701Z,82.46
2018-01-27T17:09:20.221Z,82.27
2018-01-27T17:11:47.762Z,82.32
2018-01-27T17:14:15.389Z,82.11
2018-01-27T17:16:42.922Z,82.54
2018-01-27T17:19:10.509Z,82.58
2018-01-27T17:21:38.042Z,82.26
2018-01-27T17:24:05.613Z,83.50
2018-01-27T17:26:33.131Z,82.59
2018-01-27T17:29:00.659Z,82.35
2018-01-27T17:31:28.192Z,82.53
2018-01-27T17:33:55.712Z,82.79
2018-01-27T17:36:23.231Z,82.87
2018-01-27T17:38:50.759Z,82.88
2018-01-27T17:41:18.338Z,82.92
2018-01-27T17:43:45.906Z,83.06
2018-01-27T17:46:13.442Z,83.03
2018-01-27T17:48:41.027Z,82.99
2018-01-27T17:51:08.553Z,83.00
2018-01-27T17:53:36.076Z,82.96
2018-01-27T17:56:03.605Z,83.06
2018-01-27T17:58:31.130Z,83.28
2018-01-27T18:00:58.649Z,83.47
2018-01-27T18:03:26.183Z,83.46
2018-01-27T18:05:53.725Z,83.54
2018-01-27T18:08:21.273Z,83.58
2018-01-27T18:10:48.815Z,83.78
2018-01-27T18:13:16.412Z,83.93
2018-01-27T18:15:43.928Z,83.84
2018-01-27T18:18:11.462Z,84.04
2018-01-27T18:20:39.022Z,84.07
2018-01-27T18:23:06.560Z,84.16
2018-01-27T18:25:34.083Z,84.08
2018-01-27T18:28:01.664Z,84.02
2018-01-27T18:30:29.205Z,84.12
2018-01-27T18:32:56.733Z,84.25
2018-01-27T18:35:24.259Z,84.32
2018-01-27T18:37:51.815Z,84.47
2018-01-27T18:40:19.342Z,84.41
2018-01-27T18:42:46.887Z,84.78
2018-01-27T18:45:14.488Z,84.81
2018-01-27T18:47:42.020Z,84.91
2018-01-27T18:50:09.544Z,84.93
2018-01-27T18:52:37.078Z,84.99
2018-01-27T18:55:04.606Z,85.14
2018-01-27T18:57:32.120Z,85.40
2018-01-27T18:59:59.860Z,85.29
2018-01-27T19:02:27.515Z,85.28
2018-01-27T19:04:55.042Z,85.30
2018-01-27T19:07:22.630Z,85.55
2018-01-27T19:09:50.404Z,85.45
2018-01-27T19:12:17.949Z,85.63
2018-01-27T19:14:45.726Z,85.71
2018-01-27T19:17:13.269Z,85.60
2018-01-27T19:19:40.796Z,85.65
2018-01-27T19:22:08.320Z,85.96
2018-01-27T19:24:35.849Z,85.86
2018-01-27T19:27:03.400Z,85.76
2018-01-27T19:29:30.917Z,86.03
2018-01-27T19:31:58.435Z,86.20
2018-01-27T19:34:25.959Z,86.27
2018-01-27T19:36:53.554Z,86.33
2018-01-27T19:39:21.091Z,86.41
2018-01-27T19:41:48.616Z,86.60
2018-01-27T19:44:16.141Z,86.70
2018-01-27T19:46:43.664Z,86.77
2018-01-27T19:49:11.185Z,86.91
2018-01-27T19:51:38.710Z,86.99
2018-01-27T19:54:06.230Z,87.02
2018-01-27T19:56:33.901Z,87.07
2018-01-27T19:59:01.431Z,87.15
2018-01-27T20:01:28.973Z,87.29
2018-01-27T20:03:56.617Z,87.66
2018-01-27T20:06:24.144Z,87.60
2018-01-27T20:08:51.733Z,87.48
2018-01-27T20:11:19.401Z,87.98
2018-01-27T20:13:46.962Z,88.03
2018-01-27T20:16:14.519Z,88.04
2018-01-27T20:18:42.075Z,88.30
2018-01-27T20:21:09.600Z,88.41
2018-01-27T20:23:37.152Z,87.98
2018-01-27T20:26:04.683Z,88.35
2018-01-27T20:28:32.200Z,88.39
2018-01-27T20:30:59.726Z,88.39
2018-01-27T20:33:27.288Z,88.46
2018-01-27T20:35:54.810Z,88.75
2018-01-27T20:38:22.333Z,88.71
2018-01-27T20:40:49.873Z,88.71
2018-01-27T20:43:17.399Z,88.79
2018-01-27T20:45:44.929Z,88.86
2018-01-27T20:48:12.491Z,88.77
2018-01-27T20:50:40.021Z,89.17
2018-01-27T20:53:07.549Z,89.13
2018-01-27T20:55:35.174Z,89.23
2018-01-27T20:58:02.705Z,89.18
2018-01-27T21:00:30.228Z,89.07
2018-01-27T21:02:57.773Z,89.35
2018-01-27T21:05:25.372Z,89.45
2018-01-27T21:07:52.940Z,89.43
2018-01-27T21:10:20.484Z,89.15
2018-01-27T21:12:48.008Z,89.46
2018-01-27T21:15:15.640Z,89.16
2018-01-27T21:17:43.164Z,89.33
2018-01-27T21:20:10.693Z,89.30
2018-01-27T21:22:38.213Z,89.32
2018-01-27T21:25:05.752Z,89.28
2018-01-27T21:27:33.296Z,89.29
2018-01-27T21:30:00.814Z,89.43
2018-01-27T21:32:28.335Z,89.25
2018-01-27T21:34:55.877Z,89.30
2018-01-27T21:37:23.488Z,89.43
2018-01-27T21:39:51.006Z,89.18
2018-01-27T21:42:18.520Z,89.29
2018-01-27T21:44:46.043Z,89.16
2018-01-27T21:47:13.572Z,89.28
2018-01-27T21:49:41.097Z,89.14
2018-01-27T21:52:08.649Z,88.95
2018-01-27T21:54:36.170Z,88.90
2018-01-27T21:57:03.792Z,88.90
2018-01-27T21:59:31.306Z,88.69
2018-01-27T22:01:58.852Z,88.57
2018-01-27T22:04:26.369Z,88.26
2018-01-27T22:06:53.897Z,88.03
2018-01-27T22:09:21.427Z,87.85
2018-01-27T22:11:48.948Z,87.71
2018-01-27T22:14:16.479Z,87.37
2018-01-27T22:16:44.038Z,87.12
2018-01-27T22:19:11.565Z,86.88
2018-01-27T22:21:39.096Z,86.83
2018-01-27T22:24:06.729Z,86.65
2018-01-27T22:26:34.284Z,86.45
2018-01-27T22:29:01.821Z,86.28
2018-01-27T22:31:29.341Z,86.36
2018-01-27T22:33:56.890Z,86.30
2018-01-27T22:36:24.522Z,86.13
2018-01-27T22:38:52.039Z,85.74
2018-01-27T22:41:19.604Z,85.98
2018-01-27T22:43:47.124Z,85.69
2018-01-27T22:46:14.736Z,85.40
2018-01-27T22:48:42.251Z,85.27
2018-01-27T22:51:09.782Z,85.22
2018-01-27T22:53:37.341Z,85.30
2018-01-27T22:56:04.940Z,85.23
2018-01-27T22:58:32.460Z,85.37
2018-01-27T23:01:05.538Z,85.37
2018-01-27T23:03:33.106Z,85.25
2018-01-27T23:06:00.628Z,85.26
2018-01-27T23:08:28.181Z,85.17
2018-01-27T23:10:55.705Z,85.40
2018-01-27T23:13:23.230Z,85.18
2018-01-27T23:15:53.711Z,85.26
2018-01-27T23:18:21.274Z,85.27
2018-01-27T23:20:48.804Z,84.91
2018-01-27T23:23:16.676Z,84.94
2018-01-27T23:25:44.377Z,84.84
2018-01-27T23:28:11.977Z,84.42
2018-01-27T23:30:39.501Z,84.21
2018-01-27T23:33:07.043Z,84.00
2018-01-27T23:35:34.556Z,83.87
2018-01-27T23:38:02.108Z,83.85
2018-01-27T23:40:29.681Z,83.69
2018-01-27T23:42:57.236Z,83.52
2018-01-27T23:45:24.800Z,83.19
2018-01-27T23:47:52.325Z,82.63
2018-01-27T23:50:19.845Z,82.94
2018-01-27T23:52:47.455Z,82.34
2018-01-27T23:55:15.043Z,82.28
2018-01-27T23:57:42.600Z,82.63
